Time;durP1;ratioP1;P1;durP2;ratioP2;P2;SDS_P1;SDS_P2;PMS_P1;PMS_P2;Temp;Humidity;BMP_temperature;BMP_pressure;BME280_temperature;BME280_humidity;BME280_pressure;Samples;Min_cycle;Max_cycle;Signal;HPM_P1;HPM_P2
2023/06/26 00:02:21;;;;;;;10.32;3.90;;;;;;;20.17;79.53;100652.56;5068259;28;20082;-72
2023/06/26 00:04:47;;;;;;;8.10;4.53;;;;;;;20.16;79.91;100646.44;5072851;28;20032;-72
2023/06/26 00:07:12;;;;;;;4.72;3.72;;;;;;;20.15;79.83;100651.94;5077830;28;20048;-72
2023/06/26 00:09:38;;;;;;;4.22;3.83;;;;;;;20.15;80.09;100651.94;5079848;28;20056;-71
2023/06/26 00:12:04;;;;;;;5.53;4.00;;;;;;;20.07;80.41;100652.94;5067568;28;20028;-72
2023/06/26 00:14:29;;;;;;;7.13;3.97;;;;;;;19.99;80.84;100647.84;5074187;28;20423;-72
2023/06/26 00:16:55;;;;;;;7.35;3.92;;;;;;;19.98;80.75;100653.34;5074351;28;20047;-72
2023/06/26 00:19:20;;;;;;;7.05;4.78;;;;;;;19.95;80.77;100646.63;5071566;28;20037;-72
2023/06/26 00:21:47;;;;;;;5.28;4.55;;;;;;;19.95;80.63;100653.72;5079332;28;20032;-71
2023/06/26 00:24:15;;;;;;;7.20;4.82;;;;;;;19.97;80.76;100655.16;5083333;28;20048;-72
2023/06/26 00:26:40;;;;;;;6.20;4.40;;;;;;;20.03;80.25;100653.53;5073031;28;20059;-72
2023/06/26 00:29:06;;;;;;;8.20;4.70;;;;;;;19.98;80.71;100646.22;5083887;28;20068;-72
2023/06/26 00:31:32;;;;;;;9.48;4.93;;;;;;;19.92;81.13;100647.00;5076624;28;20031;-72
2023/06/26 00:33:58;;;;;;;7.65;4.60;;;;;;;19.88;81.02;100646.59;5088919;28;20820;-71
2023/06/26 00:36:23;;;;;;;5.05;4.40;;;;;;;19.83;81.47;100643.78;5084215;28;20038;-72
2023/06/26 00:38:50;;;;;;;4.47;3.85;;;;;;;19.78;81.39;100650.66;5081450;28;20111;-72
2023/06/26 00:41:15;;;;;;;7.57;4.38;;;;;;;19.77;81.77;100643.75;5073113;28;20123;-72
2023/06/26 00:43:41;;;;;;;6.88;4.90;;;;;;;19.73;81.87;100647.81;5085272;28;20123;-72
2023/06/26 00:46:10;;;;;;;6.25;5.18;;;;;;;19.69;81.95;100643.94;5079918;28;20059;-72
2023/06/26 00:48:37;;;;;;;8.02;4.50;;;;;;;19.66;82.24;100646.97;5084122;28;21719;-72
2023/06/26 00:51:03;;;;;;;6.88;4.72;;;;;;;19.66;82.37;100650.44;5082274;28;20024;-72
2023/06/26 00:53:30;;;;;;;8.93;4.65;;;;;;;19.69;82.18;100649.22;5082983;28;20028;-72
2023/06/26 00:55:56;;;;;;;7.22;5.35;;;;;;;19.72;82.24;100640.88;5076775;28;20066;-71
2023/06/26 00:58:24;;;;;;;7.05;5.50;;;;;;;19.74;81.61;100646.78;5087071;28;20511;-72
2023/06/26 01:00:51;;;;;;;5.85;4.90;;;;;;;19.75;81.68;100645.78;5080058;28;20042;-72
2023/06/26 01:03:17;;;;;;;5.18;4.68;;;;;;;19.74;81.81;100652.09;5081788;28;20099;-72
2023/06/26 01:05:49;;;;;;;6.47;4.70;;;;;;;19.72;82.01;100651.47;5063878;28;20389;-72
2023/06/26 01:08:15;;;;;;;5.30;4.80;;;;;;;19.71;82.04;100641.91;5078893;28;20042;-72
2023/06/26 01:10:41;;;;;;;7.07;5.18;;;;;;;19.68;81.68;100643.13;5083899;28;20060;-72
2023/06/26 01:13:07;;;;;;;5.00;4.38;;;;;;;19.72;81.75;100638.25;5072420;28;20055;-72
2023/06/26 01:15:33;;;;;;;5.50;4.68;;;;;;;19.72;82.22;100640.88;5066658;28;20032;-72
2023/06/26 01:18:03;;;;;;;6.25;5.03;;;;;;;19.72;82.18;100638.25;5081114;28;20047;-72
2023/06/26 01:20:31;;;;;;;5.72;4.65;;;;;;;19.72;82.50;100635.59;5070576;28;20396;-72
2023/06/26 01:23:06;;;;;;;8.73;5.07;;;;;;;19.68;82.55;100632.53;5069188;28;20467;-72
2023/06/26 01:25:38;;;;;;;9.18;5.00;;;;;;;19.67;83.21;100627.47;5071711;28;20032;-72
2023/06/26 01:28:06;;;;;;;6.97;4.95;;;;;;;19.67;82.88;100627.47;5072509;28;20036;-72
2023/06/26 01:30:32;;;;;;;8.32;5.65;;;;;;;19.66;82.93;100624.00;5066959;28;20047;-71
2023/06/26 01:32:59;;;;;;;5.90;4.80;;;;;;;19.65;83.09;100632.13;5091580;28;20122;-72
2023/06/26 01:35:25;;;;;;;8.73;5.30;;;;;;;19.67;82.75;100622.16;5066145;28;20036;-71
2023/06/26 01:37:50;;;;;;;5.50;4.80;;;;;;;19.68;82.28;100626.44;5072649;28;20039;-72
2023/06/26 01:40:16;;;;;;;6.20;5.60;;;;;;;19.67;82.49;100616.88;5072403;28;20032;-72
2023/06/26 01:42:42;;;;;;;5.57;4.97;;;;;;;19.63;82.57;100615.66;5071113;28;20434;-72
2023/06/26 01:45:19;;;;;;;7.40;4.90;;;;;;;19.62;82.56;100614.84;5074613;28;20033;-71
2023/06/26 01:47:51;;;;;;;6.75;5.18;;;;;;;19.60;82.19;100616.06;5082402;28;20055;-72
2023/06/26 01:50:22;;;;;;;6.68;5.22;;;;;;;19.59;82.11;100620.53;5079526;28;21020;-72
2023/06/26 01:52:56;;;;;;;8.35;4.93;;;;;;;19.54;82.15;100620.31;5080889;28;20042;-71
2023/06/26 01:55:35;;;;;;;6.13;5.53;;;;;;;19.54;82.25;100622.94;5080194;28;20023;-71
2023/06/26 01:58:01;;;;;;;9.32;5.97;;;;;;;19.57;82.31;100621.72;5075601;28;20499;-72
2023/06/26 02:00:27;;;;;;;5.60;5.07;;;;;;;19.60;82.29;100622.16;5078158;28;20028;-71
2023/06/26 02:02:53;;;;;;;6.60;4.70;;;;;;;19.60;81.84;100624.78;5081546;28;20433;-72
2023/06/26 02:05:19;;;;;;;7.65;5.30;;;;;;;19.58;82.41;100623.34;5082705;28;20044;-72
2023/06/26 02:07:44;;;;;;;6.40;5.00;;;;;;;19.52;82.63;100623.16;5074928;28;20085;-72
2023/06/26 02:10:10;;;;;;;7.45;5.00;;;;;;;19.43;82.38;100624.28;5073064;28;20455;-72
2023/06/26 02:12:37;;;;;;;6.30;5.32;;;;;;;19.45;82.51;100616.16;5059551;28;20127;-72
2023/06/26 02:15:04;;;;;;;7.30;5.60;;;;;;;19.44;82.69;100618.00;5067527;28;20032;-72
2023/06/26 02:17:30;;;;;;;7.40;5.82;;;;;;;19.40;82.87;100623.88;5079720;28;20020;-72
2023/06/26 02:19:56;;;;;;;6.28;5.00;;;;;;;19.33;83.17;100631.00;5072015;28;20463;-72
2023/06/26 02:22:22;;;;;;;8.70;5.47;;;;;;;19.26;83.32;100623.03;5066745;28;20111;-73
2023/06/26 02:24:48;;;;;;;6.47;5.60;;;;;;;19.17;82.80;100632.13;5065652;28;20114;-71
2023/06/26 02:27:14;;;;;;;9.45;5.43;;;;;;;19.38;80.36;100623.25;5071509;28;20045;-71
2023/06/26 02:29:52;;;;;;;6.82;5.40;;;;;;;19.59;78.73;100625.00;5073533;28;20038;-72
2023/06/26 02:32:18;;;;;;;8.57;6.05;;;;;;;19.69;77.83;100625.44;5079297;28;20040;-72
2023/06/26 02:34:44;;;;;;;6.28;5.05;;;;;;;19.77;78.03;100626.06;5080389;28;20067;-72
2023/06/26 02:37:10;;;;;;;6.45;5.60;;;;;;;19.73;78.79;100631.94;5075603;28;20056;-72
2023/06/26 02:39:36;;;;;;;5.80;5.15;;;;;;;19.59;79.79;100632.91;5065325;28;20040;-72
2023/06/26 02:42:02;;;;;;;5.82;4.78;;;;;;;19.43;80.54;100628.75;5066312;28;20083;-72
2023/06/26 02:44:27;;;;;;;5.00;4.35;;;;;;;19.46;79.96;100636.28;5072545;28;20218;-73
2023/06/26 02:46:53;;;;;;;6.05;4.70;;;;;;;19.49;79.45;100631.44;5069099;28;20035;-72
2023/06/26 02:49:18;;;;;;;5.80;5.13;;;;;;;19.56;79.28;100636.78;5082834;28;20037;-73
2023/06/26 02:51:44;;;;;;;8.60;5.32;;;;;;;19.61;78.63;100634.34;5074978;28;20040;-73
2023/06/26 02:54:09;;;;;;;6.38;5.40;;;;;;;19.64;77.85;100635.78;5084433;28;20028;-73
2023/06/26 02:56:35;;;;;;;5.72;4.90;;;;;;;19.65;78.00;100630.31;5078343;28;20106;-73
2023/06/26 02:59:00;;;;;;;6.80;5.05;;;;;;;19.70;77.56;100633.16;5071393;28;20479;-73
2023/06/26 03:01:26;;;;;;;5.93;5.20;;;;;;;19.74;76.89;100633.56;5076999;28;20137;-73
2023/06/26 03:03:52;;;;;;;9.10;5.50;;;;;;;19.94;75.87;100636.25;5080128;28;20032;-72
2023/06/26 03:06:18;;;;;;;8.38;5.80;;;;;;;19.94;75.76;100634.41;5069862;28;20036;-72
2023/06/26 03:08:43;;;;;;;6.53;4.93;;;;;;;19.78;77.40;100638.25;5074311;28;20037;-72
2023/06/26 03:11:10;;;;;;;6.95;5.63;;;;;;;19.58;78.97;100644.50;5085334;28;20036;-72
2023/06/26 03:13:36;;;;;;;7.97;5.43;;;;;;;19.43;79.72;100634.88;5067697;28;20032;-73
2023/06/26 03:16:02;;;;;;;6.35;5.47;;;;;;;19.41;78.80;100638.72;5079478;28;20119;-72
2023/06/26 03:18:28;;;;;;;8.23;5.18;;;;;;;19.66;76.43;100631.13;5070831;28;20025;-73
2023/06/26 03:20:55;;;;;;;8.38;5.20;;;;;;;19.82;75.29;100634.22;5076062;28;20055;-73
2023/06/26 03:23:22;;;;;;;8.27;5.13;;;;;;;19.95;74.12;100638.69;5075692;28;20717;-73
2023/06/26 03:25:49;;;;;;;11.40;5.07;;;;;;;19.97;74.08;100634.00;5075354;28;20029;-72
2023/06/26 03:28:16;;;;;;;6.63;5.15;;;;;;;20.02;73.64;100639.50;5071517;28;20032;-72
2023/06/26 03:30:41;;;;;;;7.57;6.20;;;;;;;20.02;73.25;100639.50;5076204;28;20036;-72
2023/06/26 03:33:08;;;;;;;5.78;5.03;;;;;;;20.06;73.22;100648.66;5075264;28;20120;-73
2023/06/26 03:35:33;;;;;;;6.93;5.80;;;;;;;20.09;72.61;100644.81;5078958;28;20043;-71
2023/06/26 03:38:00;;;;;;;5.90;5.03;;;;;;;20.14;72.46;100645.00;5086616;28;20032;-72
2023/06/26 03:40:26;;;;;;;6.68;5.13;;;;;;;20.16;72.15;100650.91;5077446;28;20044;-72
2023/06/26 03:42:52;;;;;;;10.32;5.50;;;;;;;20.11;72.14;100654.16;5072449;28;20040;-73
2023/06/26 03:45:19;;;;;;;6.85;5.20;;;;;;;20.12;72.00;100650.50;5074069;28;20120;-72
2023/06/26 03:47:48;;;;;;;7.55;5.22;;;;;;;20.14;72.05;100651.13;5069346;28;20807;-72
2023/06/26 03:50:15;;;;;;;5.70;5.07;;;;;;;20.15;71.80;100651.94;5077058;28;20029;-73
2023/06/26 03:52:41;;;;;;;6.40;5.03;;;;;;;20.14;71.68;100651.13;5076833;28;20055;-72
2023/06/26 03:55:08;;;;;;;6.07;5.30;;;;;;;20.16;71.70;100653.56;5076428;28;20503;-73
2023/06/26 03:57:33;;;;;;;5.75;5.18;;;;;;;20.16;71.97;100650.91;5076444;28;20185;-72
2023/06/26 03:59:59;;;;;;;6.32;5.05;;;;;;;20.15;71.97;100647.47;5071660;28;20024;-72
2023/06/26 04:02:25;;;;;;;11.23;5.85;;;;;;;20.16;71.55;100641.16;5074731;28;20115;-72
2023/06/26 04:04:52;;;;;;;7.47;5.15;;;;;;;20.21;71.66;100645.84;5069366;28;20119;-73
2023/06/26 04:07:18;;;;;;;5.80;4.60;;;;;;;20.19;71.12;100643.41;5064409;28;20036;-71
2023/06/26 04:09:44;;;;;;;6.72;5.30;;;;;;;20.23;71.48;100643.00;5081698;28;20040;-72
2023/06/26 04:12:10;;;;;;;6.53;5.20;;;;;;;20.25;71.13;100648.91;5074891;28;20033;-70
2023/06/26 04:14:36;;;;;;;8.85;5.82;;;;;;;20.32;70.96;100647.84;5064939;28;20494;-70
2023/06/26 04:17:03;;;;;;;7.13;5.47;;;;;;;20.38;71.29;100657.66;5074163;28;20069;-69
2023/06/26 04:19:30;;;;;;;6.65;5.85;;;;;;;20.44;71.59;100656.03;5074105;28;20043;-69
2023/06/26 04:21:56;;;;;;;6.50;5.07;;;;;;;20.51;71.54;100654.19;5031686;28;20074;-70
2023/06/26 04:24:21;;;;;;;10.40;5.38;;;;;;;20.52;70.99;100655.81;5066022;28;20078;-69
2023/06/26 04:26:47;;;;;;;12.48;5.60;;;;;;;20.52;70.41;100654.00;5049689;28;20520;-69
2023/06/26 04:29:12;;;;;;;5.65;4.97;;;;;;;20.55;70.12;100655.41;5054082;28;20033;-70
2023/06/26 04:31:38;;;;;;;6.35;5.43;;;;;;;20.52;69.88;100655.81;5057860;28;20493;-69
2023/06/26 04:34:04;;;;;;;6.15;5.18;;;;;;;20.55;69.84;100658.06;5061275;28;20031;-70
2023/06/26 04:36:31;;;;;;;6.90;5.15;;;;;;;20.57;69.61;100666.63;5056212;28;20115;-69
2023/06/26 04:38:57;;;;;;;6.00;5.15;;;;;;;20.56;69.75;100658.88;5061562;28;20033;-70
2023/06/26 04:41:23;;;;;;;6.22;5.32;;;;;;;20.57;69.95;100666.63;5052526;28;20110;-70
2023/06/26 04:43:48;;;;;;;8.57;4.82;;;;;;;20.57;70.12;100668.44;5054518;28;20024;-69
2023/06/26 04:46:14;;;;;;;4.90;4.40;;;;;;;20.61;69.91;100665.19;5059308;28;20094;-69
2023/06/26 04:48:39;;;;;;;6.18;4.90;;;;;;;20.61;69.96;100667.03;5057250;28;20110;-71
2023/06/26 04:51:04;;;;;;;5.82;5.03;;;;;;;20.68;69.80;100663.34;5073460;28;20033;-70
2023/06/26 04:53:30;;;;;;;6.75;5.43;;;;;;;20.75;69.27;100666.00;5070243;28;20028;-71
2023/06/26 04:55:56;;;;;;;5.75;4.97;;;;;;;20.78;69.61;100668.22;5057330;28;20449;-69
2023/06/26 04:58:21;;;;;;;8.93;5.03;;;;;;;20.78;70.01;100671.69;5060609;28;20105;-69
2023/06/26 05:00:48;;;;;;;7.18;5.57;;;;;;;20.81;69.75;100673.91;5051405;28;20037;-69
2023/06/26 05:03:15;;;;;;;7.18;5.28;;;;;;;20.85;69.79;100669.81;5064688;28;20040;-70
2023/06/26 05:05:41;;;;;;;6.18;4.72;;;;;;;20.89;69.75;100664.94;5057481;28;20037;-70
2023/06/26 05:08:14;;;;;;;8.70;5.63;;;;;;;20.87;69.21;100672.25;5050350;28;20044;-70
2023/06/26 05:10:39;;;;;;;7.68;5.30;;;;;;;20.84;69.14;100670.84;5047628;28;20036;-70
2023/06/26 05:13:05;;;;;;;7.05;5.07;;;;;;;20.95;69.49;100668.59;5046859;28;20094;-71
2023/06/26 05:15:30;;;;;;;9.73;6.38;;;;;;;21.03;69.18;100660.41;5057639;28;20393;-68
2023/06/26 05:17:55;;;;;;;7.10;5.13;;;;;;;21.10;68.87;100667.34;5072668;28;20035;-68
2023/06/26 05:20:21;;;;;;;7.00;5.45;;;;;;;21.18;68.62;100663.66;5075972;28;20043;-68
2023/06/26 05:22:46;;;;;;;8.75;5.18;;;;;;;21.22;68.29;100656.13;5088307;28;20030;-68
2023/06/26 05:25:14;;;;;;;7.80;5.50;;;;;;;21.37;67.65;100657.47;5090678;28;20044;-68
2023/06/26 05:27:40;;;;;;;6.97;5.82;;;;;;;21.54;67.66;100660.47;5087871;28;20024;-69
2023/06/26 05:30:06;;;;;;;8.95;6.38;;;;;;;21.70;66.96;100657.31;5092519;28;20501;-68
2023/06/26 05:32:35;;;;;;;6.53;5.55;;;;;;;21.79;66.02;100644.59;5087935;28;20036;-67
2023/06/26 05:35:03;;;;;;;7.32;5.15;;;;;;;21.81;66.87;100658.47;5091697;28;20031;-67
2023/06/26 05:37:30;;;;;;;6.03;4.68;;;;;;;21.76;66.38;100658.28;5081134;28;20436;-68
2023/06/26 05:39:56;;;;;;;6.97;4.82;;;;;;;21.76;66.50;100660.94;5086318;28;20027;-68
2023/06/26 05:42:22;;;;;;;7.63;5.57;;;;;;;21.82;66.21;100665.38;5078751;28;20032;-68
2023/06/26 05:44:47;;;;;;;7.25;5.30;;;;;;;21.74;66.93;100660.38;5085410;28;20391;-68
2023/06/26 05:47:13;;;;;;;9.18;5.10;;;;;;;21.75;66.69;100659.31;5092250;28;20128;-67
2023/06/26 05:49:38;;;;;;;6.78;4.75;;;;;;;21.78;67.05;100659.69;5084478;28;20510;-68
2023/06/26 05:52:04;;;;;;;8.95;5.00;;;;;;;21.90;66.62;100661.69;5089335;28;20032;-67
2023/06/26 05:54:30;;;;;;;5.40;4.90;;;;;;;21.98;66.55;100659.59;5087626;28;20036;-68
2023/06/26 05:57:00;;;;;;;9.63;4.90;;;;;;;22.04;66.42;100661.41;5089710;28;20515;-67
2023/06/26 05:59:26;;;;;;;8.65;4.93;;;;;;;22.09;66.57;100664.25;5087876;28;20028;-68
2023/06/26 06:01:52;;;;;;;8.20;5.25;;;;;;;22.18;66.92;100668.25;5083155;28;20120;-69
2023/06/26 06:04:18;;;;;;;6.15;5.05;;;;;;;22.23;66.79;100666.78;5083086;28;20119;-68
2023/06/26 06:06:43;;;;;;;8.13;5.82;;;;;;;22.28;66.72;100664.28;5079670;28;20071;-69
2023/06/26 06:09:09;;;;;;;8.60;5.05;;;;;;;22.33;66.62;100664.44;5072902;28;20412;-68
2023/06/26 06:11:34;;;;;;;6.82;5.32;;;;;;;22.34;66.19;100663.41;5075772;28;20024;-67
2023/06/26 06:14:00;;;;;;;6.55;4.63;;;;;;;22.42;65.92;100665.81;5071132;28;20041;-68
2023/06/26 06:16:26;;;;;;;12.43;4.93;;;;;;;22.54;65.48;100664.06;5089195;28;20028;-68
2023/06/26 06:18:51;;;;;;;7.13;5.55;;;;;;;22.59;65.31;100658.94;5085890;28;20737;-67
2023/06/26 06:21:16;;;;;;;7.82;5.53;;;;;;;22.71;65.08;100661.66;5090264;28;20055;-67
2023/06/26 06:23:42;;;;;;;6.18;5.43;;;;;;;22.81;64.50;100664.66;5083078;28;20028;-68
2023/06/26 06:26:07;;;;;;;8.48;5.97;;;;;;;22.87;64.04;100662.97;5081829;28;20039;-67
2023/06/26 06:28:33;;;;;;;7.88;5.55;;;;;;;22.98;63.76;100664.91;5084002;28;20032;-67
2023/06/26 06:30:58;;;;;;;8.82;5.22;;;;;;;23.04;63.81;100659.50;5086541;28;20131;-67
2023/06/26 06:33:24;;;;;;;9.23;5.30;;;;;;;23.15;63.52;100655.31;5075869;28;20048;-67
2023/06/26 06:35:49;;;;;;;7.80;5.30;;;;;;;;;;5079322;28;20093;-67
2023/06/26 06:38:15;;;;;;;14.77;5.22;;;;;;;23.36;63.05;100654.81;5091581;28;20036;-67
2023/06/26 06:40:40;;;;;;;10.77;5.03;;;;;;;23.43;62.63;100655.56;5083462;28;20024;-67
2023/06/26 06:43:05;;;;;;;10.27;5.95;;;;;;;23.54;62.55;100650.56;5075396;28;20028;-67
2023/06/26 06:45:31;;;;;;;19.83;6.40;;;;;;;23.70;62.29;100648.06;5077508;28;20066;-66
2023/06/26 06:47:56;;;;;;;21.45;6.15;;;;;;;23.78;61.88;100645.06;5076685;28;20097;-67
2023/06/26 06:50:22;;;;;;;10.27;5.60;;;;;;;23.86;61.64;100643.94;5069334;28;20039;-66
2023/06/26 06:52:47;;;;;;;9.32;4.95;;;;;;;23.91;61.44;100644.06;5090516;28;20027;-66
2023/06/26 06:55:12;;;;;;;9.95;6.07;;;;;;;23.96;60.68;100635.41;5084854;28;20028;-67
2023/06/26 06:57:39;;;;;;;10.57;5.57;;;;;;;24.06;60.60;100641.81;5086487;28;20047;-67
2023/06/26 07:00:11;;;;;;;16.23;5.68;;;;;;;24.05;60.79;100634.84;5087393;28;20450;-67
2023/06/26 07:02:37;;;;;;;8.68;5.07;;;;;;;24.25;60.04;100631.88;5090478;28;20028;-66
2023/06/26 07:05:03;;;;;;;7.88;5.28;;;;;;;24.29;60.14;100635.72;5087441;28;20024;-66
2023/06/26 07:07:31;;;;;;;9.05;5.18;;;;;;;24.45;59.83;100628.91;5090293;28;20062;-66
2023/06/26 07:10:02;;;;;;;8.68;5.10;;;;;;;24.48;60.10;100639.91;5074826;28;20030;-66
2023/06/26 07:12:28;;;;;;;7.53;4.82;;;;;;;24.70;59.24;100642.78;5090412;28;20419;-67
2023/06/26 07:14:55;;;;;;;5.47;4.70;;;;;;;24.79;58.59;100646.69;5078118;28;20055;-66
2023/06/26 07:17:21;;;;;;;7.63;5.03;;;;;;;24.98;58.38;100647.41;5090859;28;20028;-67
2023/06/26 07:19:46;;;;;;;9.15;4.97;;;;;;;25.29;57.50;100650.69;5086624;28;20097;-68
2023/06/26 07:22:12;;;;;;;6.28;4.90;;;;;;;25.30;56.87;100639.78;5085958;28;20032;-66
2023/06/26 07:24:37;;;;;;;7.65;4.28;;;;;;;25.50;56.05;100643.91;5087590;28;20036;-66
2023/06/26 07:27:03;;;;;;;7.53;4.60;;;;;;;25.80;54.68;100636.47;5068124;28;20392;-66
2023/06/26 07:29:28;;;;;;;8.45;4.95;;;;;;;26.05;55.12;100639.53;5062465;28;20032;-66
2023/06/26 07:31:54;;;;;;;8.02;4.55;;;;;;;26.10;55.30;100625.47;5059798;28;20037;-66
2023/06/26 07:34:19;;;;;;;5.43;4.20;;;;;;;26.06;55.11;100627.81;5063565;28;20036;-66
2023/06/26 07:36:45;;;;;;;6.55;4.90;;;;;;;25.93;55.32;100630.81;5064017;28;20384;-65
2023/06/26 07:39:10;;;;;;;8.40;5.22;;;;;;;25.79;55.60;100629.50;5057228;28;20396;-67
2023/06/26 07:41:36;;;;;;;8.13;5.47;;;;;;;25.90;55.56;100625.97;5071132;28;20032;-66
2023/06/26 07:44:02;;;;;;;8.15;4.93;;;;;;;26.18;55.24;100632.25;5050129;28;20501;-66
2023/06/26 07:46:27;;;;;;;5.53;5.00;;;;;;;26.40;54.17;100633.19;5049984;28;20029;-66
2023/06/26 07:48:54;;;;;;;6.18;5.03;;;;;;;26.29;54.35;100628.72;5056333;28;20031;-66
2023/06/26 07:51:20;;;;;;;7.47;5.47;;;;;;;26.28;53.65;100629.75;5057073;28;20986;-67
2023/06/26 07:53:46;;;;;;;6.53;4.95;;;;;;;26.32;53.55;100626.38;5064129;28;20077;-66
2023/06/26 07:56:11;;;;;;;7.13;4.78;;;;;;;26.60;53.72;100624.63;5072768;28;20089;-66
2023/06/26 07:58:37;;;;;;;6.47;5.00;;;;;;;26.75;53.46;100624.84;5076497;28;20020;-66
2023/06/26 08:01:03;;;;;;;6.55;4.50;;;;;;;26.89;53.45;100627.97;5069928;28;20396;-66
2023/06/26 08:03:29;;;;;;;6.00;4.68;;;;;;;26.70;52.82;100630.94;5057892;28;20048;-67
2023/06/26 08:05:54;;;;;;;6.97;4.95;;;;;;;26.64;52.91;100623.91;5075696;28;20032;-66
2023/06/26 08:08:20;;;;;;;6.97;5.07;;;;;;;26.58;52.30;100626.75;5065831;28;20033;-67
2023/06/26 08:10:46;;;;;;;5.13;4.68;;;;;;;26.64;51.35;100621.22;5069539;28;20041;-67
2023/06/26 08:13:12;;;;;;;9.30;4.97;;;;;;;26.70;51.44;100617.56;5066643;28;20090;-66
2023/06/26 08:15:39;;;;;;;7.13;5.05;;;;;;;26.99;50.45;100617.41;5072148;28;20128;-66
2023/06/26 08:18:04;;;;;;;8.77;4.95;;;;;;;27.15;50.98;100621.88;5069847;28;20341;-66
2023/06/26 08:20:30;;;;;;;6.03;4.80;;;;;;;27.17;50.61;100619.78;5076599;28;20127;-66
2023/06/26 08:22:57;;;;;;;5.75;4.57;;;;;;;27.44;49.84;100625.13;5064629;28;20051;-66
2023/06/26 08:25:22;;;;;;;5.85;4.40;;;;;;;27.47;50.86;100618.47;5074097;28;20412;-66
2023/06/26 08:27:48;;;;;;;5.90;4.80;;;;;;;27.58;50.49;100622.88;5069798;28;20036;-66
2023/06/26 08:30:13;;;;;;;5.18;4.68;;;;;;;27.78;50.23;100612.41;5070020;28;20061;-66
2023/06/26 08:32:40;;;;;;;6.65;5.07;;;;;;;27.92;50.27;100607.41;5091684;28;20035;-66
2023/06/26 08:35:07;;;;;;;6.13;4.93;;;;;;;27.94;49.39;100605.28;5072667;28;20190;-65
2023/06/26 08:37:32;;;;;;;7.18;4.53;;;;;;;27.94;49.41;100608.75;5075111;28;20039;-66
2023/06/26 08:39:59;;;;;;;6.38;5.22;;;;;;;28.06;48.56;100604.03;5089542;28;20036;-65
2023/06/26 08:42:26;;;;;;;5.30;4.72;;;;;;;27.67;49.05;100602.66;5066782;28;20484;-66
2023/06/26 08:44:52;;;;;;;4.68;3.88;;;;;;;27.95;48.98;100604.22;5070832;28;20070;-67
2023/06/26 08:47:18;;;;;;;6.72;4.65;;;;;;;28.35;48.44;100601.88;5088615;28;20535;-66
2023/06/26 08:50:12;;;;;;;6.45;4.90;;;;;;;28.40;46.88;100601.88;5091634;28;20085;-66
2023/06/26 08:53:20;;;;;;;6.60;4.90;;;;;;;28.24;47.51;100596.69;5082975;28;20248;-65
2023/06/26 08:55:48;;;;;;;6.00;4.32;;;;;;;28.25;47.55;100592.97;5083997;28;20039;-66
2023/06/26 08:58:15;;;;;;;5.78;5.18;;;;;;;28.21;47.62;100594.50;5081475;28;20052;-65
2023/06/26 09:00:41;;;;;;;5.90;4.95;;;;;;;28.17;47.87;100601.44;5073386;28;20494;-66
2023/06/26 09:03:08;;;;;;;6.13;5.05;;;;;;;28.21;46.98;100607.91;5093155;28;20463;-66
2023/06/26 09:05:34;;;;;;;5.28;4.78;;;;;;;28.24;46.52;100596.69;5070122;28;20039;-65
2023/06/26 09:08:00;;;;;;;5.05;4.65;;;;;;;28.33;47.72;100592.47;5075095;28;20048;-65
2023/06/26 09:10:26;;;;;;;4.75;4.35;;;;;;;28.31;47.60;100592.75;5075691;28;20028;-65
2023/06/26 09:12:55;;;;;;;5.57;4.63;;;;;;;28.48;47.61;100594.41;5073799;28;20033;-66
2023/06/26 09:15:21;;;;;;;8.27;4.18;;;;;;;28.50;47.22;100600.31;5070681;28;20475;-66
2023/06/26 09:17:48;;;;;;;5.20;4.70;;;;;;;28.40;46.30;100591.16;5085910;28;20036;-66
2023/06/26 09:20:14;;;;;;;5.53;4.40;;;;;;;28.18;46.51;100582.44;5069469;28;20041;-66
2023/06/26 09:22:42;;;;;;;7.00;4.20;;;;;;;28.34;47.98;100583.38;5067961;28;20105;-66
2023/06/26 09:25:09;;;;;;;5.05;4.30;;;;;;;28.74;47.54;100588.13;5083859;28;20136;-66
2023/06/26 09:27:36;;;;;;;5.65;4.55;;;;;;;28.70;46.10;100581.69;5072374;28;20044;-66
2023/06/26 09:30:03;;;;;;;6.30;4.47;;;;;;;28.77;46.76;100579.56;5073075;28;20116;-65
2023/06/26 09:32:29;;;;;;;5.88;4.57;;;;;;;29.24;46.26;100578.66;5082406;28;20048;-66
2023/06/26 09:35:00;;;;;;;5.22;4.72;;;;;;;29.38;46.66;100582.44;5084307;28;20030;-67
2023/06/26 09:37:26;;;;;;;5.60;4.93;;;;;;;29.26;45.82;100574.66;5091862;28;20383;-66
2023/06/26 09:39:52;;;;;;;6.20;4.90;;;;;;;28.91;46.80;100574.53;5067737;28;20425;-66
2023/06/26 09:42:18;;;;;;;10.57;4.75;;;;;;;29.01;46.24;100572.69;5059219;28;20143;-68
2023/06/26 09:44:45;;;;;;;5.45;4.25;;;;;;;29.30;46.35;100574.94;5071473;28;20031;-67
2023/06/26 09:47:10;;;;;;;8.77;4.90;;;;;;;29.46;46.33;100571.19;5091689;28;20028;-67
2023/06/26 09:49:36;;;;;;;6.13;4.82;;;;;;;29.32;44.88;100562.03;5091608;28;20039;-67
2023/06/26 09:52:02;;;;;;;5.65;4.57;;;;;;;28.97;45.55;100560.06;5088336;28;20024;-67
2023/06/26 09:54:30;;;;;;;5.30;4.40;;;;;;;28.89;46.49;100563.25;5087192;28;20032;-67
2023/06/26 09:57:06;;;;;;;5.70;4.43;;;;;;;28.93;45.96;100559.78;5091389;28;20489;-66
2023/06/26 09:59:32;;;;;;;7.00;5.10;;;;;;;29.02;46.45;100560.91;5091411;28;20491;-66
2023/06/26 10:02:00;;;;;;;4.90;4.47;;;;;;;28.79;46.10;100555.97;5091922;28;20035;-67
2023/06/26 10:04:25;;;;;;;5.07;4.63;;;;;;;28.68;46.21;100555.13;5081512;28;20025;-66
2023/06/26 10:06:54;;;;;;;5.22;4.45;;;;;;;28.58;46.78;100555.09;5079668;28;20039;-67
2023/06/26 10:09:21;;;;;;;5.55;5.05;;;;;;;28.65;46.70;100552.97;5088725;28;20486;-66
2023/06/26 10:11:56;;;;;;;6.57;4.85;;;;;;;28.70;45.96;100544.97;5090926;28;20038;-67
2023/06/26 10:14:22;;;;;;;4.95;4.43;;;;;;;28.96;46.16;100545.88;5091605;28;20487;-66
2023/06/26 10:16:50;;;;;;;5.65;4.78;;;;;;;29.14;47.10;100541.09;5077980;28;20035;-66
2023/06/26 10:19:23;;;;;;;5.47;4.43;;;;;;;29.65;46.04;100544.66;5060266;28;20111;-67
2023/06/26 10:21:51;;;;;;;6.70;4.93;;;;;;;29.98;46.17;100544.06;5079088;28;20127;-68
2023/06/26 10:24:19;;;;;;;5.35;4.85;;;;;;;30.12;45.34;100543.53;5088562;28;20038;-68
2023/06/26 10:26:46;;;;;;;7.15;4.63;;;;;;;30.03;45.78;100544.09;5089940;28;20036;-67
2023/06/26 10:29:14;;;;;;;5.28;4.70;;;;;;;30.13;45.19;100543.28;5090690;28;20114;-67
2023/06/26 10:31:45;;;;;;;5.15;4.55;;;;;;;29.71;44.63;100546.25;5081540;28;20043;-67
2023/06/26 10:34:11;;;;;;;5.38;4.88;;;;;;;29.28;45.37;100548.38;5058043;28;20037;-67
2023/06/26 10:36:37;;;;;;;9.10;4.53;;;;;;;29.34;46.25;100541.91;5087969;28;20055;-67
2023/06/26 10:39:05;;;;;;;8.45;5.47;;;;;;;29.40;47.24;100543.53;5080648;28;20048;-67
2023/06/26 10:41:37;;;;;;;5.88;4.90;;;;;;;29.16;46.32;100539.75;5086095;28;20029;-67
2023/06/26 10:44:25;;;;;;;5.22;4.55;;;;;;;29.31;46.81;100542.44;5070905;28;20142;-67
2023/06/26 10:46:55;;;;;;;6.22;4.93;;;;;;;29.61;46.75;100536.31;5076231;28;20028;-67
2023/06/26 10:49:25;;;;;;;5.22;4.78;;;;;;;29.78;46.31;100529.84;5068654;28;20032;-68
2023/06/26 10:51:52;;;;;;;5.18;4.70;;;;;;;29.66;45.63;100538.22;5072639;28;20051;-67
2023/06/26 10:54:20;;;;;;;5.18;4.68;;;;;;;29.25;45.98;100534.66;5064918;28;20079;-67
2023/06/26 10:56:48;;;;;;;6.30;4.45;;;;;;;28.92;46.72;100538.59;5073972;28;20030;-67
2023/06/26 10:59:15;;;;;;;6.22;4.80;;;;;;;29.18;46.36;100526.06;5078624;28;20491;-67
2023/06/26 11:01:44;;;;;;;5.55;5.05;;;;;;;29.05;46.59;100530.06;5080440;28;20079;-66
2023/06/26 11:04:10;;;;;;;6.30;4.85;;;;;;;29.13;46.19;100528.75;5086268;28;20119;-67
2023/06/26 11:06:40;;;;;;;5.63;5.10;;;;;;;29.22;46.02;100527.97;5087450;28;20043;-68
2023/06/26 11:09:05;;;;;;;8.48;4.97;;;;;;;29.11;46.16;100523.63;5079936;28;20055;-66
2023/06/26 11:11:53;;;;;;;5.63;5.13;;;;;;;28.98;47.24;100522.25;5082028;28;20060;-67
2023/06/26 11:14:19;;;;;;;6.18;5.07;;;;;;;28.95;46.51;100522.00;5086169;28;20118;-67
2023/06/26 11:16:45;;;;;;;5.45;4.88;;;;;;;28.96;46.25;100519.03;5085092;28;22025;-68
2023/06/26 11:19:11;;;;;;;4.95;4.55;;;;;;;28.92;47.40;100525.19;5077294;28;20447;-67
2023/06/26 11:21:38;;;;;;;5.45;4.95;;;;;;;29.07;47.48;100525.25;5081588;28;20044;-68
2023/06/26 11:24:06;;;;;;;6.28;4.85;;;;;;;29.24;48.57;100519.63;5090441;28;20058;-68